首页
METAR-TAF:

METAR-TAF

机场 :

Sanford-Lee County Regional Airport

Sanford, 北卡罗来纳州, 美国

纬度: 35-34-57N, 经度: 079-06-05W, 海拔: 75米

当前天气观测

该预报发布于29分钟前的12:20 UTC
静风
温度 -1°C
湿度 100%
气压 1027 hPa
能見度: 11.3公里
阴天层高于100英尺

METAR: KTTA 181220Z AUTO 00000KT 7SM OVC001 M01/M01 A3033 RMK AO2 T10101010

时间: 07:49 (12:49 UTC)


TAF: 丢失

超过4000个机场的气象观测和天气预报(METAR&TAF报告)。

可查询的气象台以黄色和红色小点在地图上表示。

将鼠标移到小点上方,可查看气象台名称。

然后点击查看天气观测和预报。

如需切换地图:点击带黑十字的绿色按钮放大地图;点击带横线的绿色按钮缩小地图;或者点击绿色箭头查看邻近地区的地图。


METAR-TAF: